createdAt,value
2022-10-11T00:02:36.324Z,100983.47
2022-10-11T00:05:38.177Z,100983.63
2022-10-11T00:08:40.084Z,100983.53
2022-10-11T00:11:42.015Z,100977.31
2022-10-11T00:14:43.782Z,100984.53
2022-10-11T00:17:45.708Z,100974.59
2022-10-11T00:20:47.584Z,100969.06
2022-10-11T00:23:49.659Z,100967.72
2022-10-11T00:26:51.452Z,100967.44
2022-10-11T00:29:53.283Z,100973.53
2022-10-11T00:32:55.132Z,100960.03
2022-10-11T00:35:58.890Z,100964.72
2022-10-11T00:39:00.870Z,100968.91
2022-10-11T00:42:02.825Z,100964.47
2022-10-11T00:45:23.248Z,100957.94
2022-10-11T00:48:27.690Z,100967.50
2022-10-11T00:51:29.400Z,100965.72
2022-10-11T00:54:31.698Z,100963.63
2022-10-11T00:57:34.454Z,100954.22
2022-10-11T01:00:36.318Z,100955.03
2022-10-11T01:03:38.188Z,100960.72
2022-10-11T01:06:40.074Z,100951.34
2022-10-11T01:09:41.915Z,100947.53
2022-10-11T01:12:50.812Z,100954.34
2022-10-11T01:15:58.641Z,100944.72
2022-10-11T01:19:03.445Z,100944.19
2022-10-11T01:22:20.516Z,100945.44
2022-10-11T01:25:32.062Z,100949.97
2022-10-11T01:28:41.581Z,100948.59
2022-10-11T01:31:52.074Z,100945.22
2022-10-11T01:35:03.931Z,100949.47
2022-10-11T01:38:05.767Z,100942.34
2022-10-11T01:41:09.089Z,100949.44
2022-10-11T01:44:10.922Z,100940.88
2022-10-11T01:47:12.857Z,100941.16
2022-10-11T01:50:33.159Z,100939.06
2022-10-11T01:53:40.598Z,100940.84
2022-10-11T01:57:01.323Z,100936.81
2022-10-11T02:00:15.591Z,100939.13
2022-10-11T02:03:17.356Z,100931.00
2022-10-11T02:06:36.455Z,100942.25
2022-10-11T02:09:41.895Z,100935.28
2022-10-11T02:12:45.012Z,100932.09
2022-10-11T02:15:46.974Z,100935.03
2022-10-11T02:18:50.475Z,100930.16
2022-10-11T02:21:53.450Z,100927.84
2022-10-11T02:24:57.007Z,100931.75
2022-10-11T02:27:59.549Z,100926.75
2022-10-11T02:31:01.479Z,100933.84
2022-10-11T02:34:11.991Z,100930.19
2022-10-11T02:37:16.776Z,100934.97
2022-10-11T02:40:21.234Z,100930.62
2022-10-11T02:43:25.351Z,100936.41
2022-10-11T02:46:27.161Z,100936.25
2022-10-11T02:49:29.457Z,100939.84
2022-10-11T02:52:31.731Z,100932.81
2022-10-11T02:55:33.576Z,100941.56
2022-10-11T02:58:35.357Z,100942.66
2022-10-11T03:01:37.249Z,100945.72
2022-10-11T03:04:39.076Z,100942.59
2022-10-11T03:07:40.897Z,100952.72
2022-10-11T03:10:42.963Z,100946.59
2022-10-11T03:13:44.761Z,100949.63
2022-10-11T03:16:46.588Z,100940.84
2022-10-11T03:19:48.441Z,100935.91
2022-10-11T03:22:50.367Z,100934.22
2022-10-11T03:25:52.230Z,100942.78
2022-10-11T03:28:54.172Z,100946.44
2022-10-11T03:31:56.104Z,100941.59
2022-10-11T03:34:58.044Z,100947.44
2022-10-11T03:37:59.855Z,100955.56
2022-10-11T03:41:01.676Z,100949.63
2022-10-11T03:44:03.738Z,100952.28
2022-10-11T03:47:06.058Z,100962.28
2022-10-11T03:50:08.254Z,100973.28
2022-10-11T03:53:10.154Z,100962.09
2022-10-11T03:56:12.301Z,100969.31
2022-10-11T03:59:14.206Z,100954.91
2022-10-11T04:02:16.121Z,100956.16
2022-10-11T04:05:18.176Z,100959.84
2022-10-11T04:08:20.022Z,100958.06
2022-10-11T04:11:21.829Z,100970.38
2022-10-11T04:14:23.619Z,100974.66
2022-10-11T04:17:25.470Z,100977.06
2022-10-11T04:20:27.311Z,100968.97
2022-10-11T04:23:30.422Z,100969.59
2022-10-11T04:26:32.255Z,100972.03
2022-10-11T04:29:34.186Z,100977.22
2022-10-11T04:32:36.028Z,100978.56
2022-10-11T04:35:37.899Z,100977.62
2022-10-11T04:38:39.724Z,100970.75
2022-10-11T04:41:41.579Z,100970.69
2022-10-11T04:44:43.394Z,100965.34
2022-10-11T04:47:45.305Z,100970.22
2022-10-11T04:50:47.157Z,100973.59
2022-10-11T04:53:49.337Z,100969.25
2022-10-11T04:56:51.154Z,100967.66
2022-10-11T04:59:52.989Z,100963.81
2022-10-11T05:02:55.221Z,100959.03
2022-10-11T05:05:57.169Z,100974.31
2022-10-11T05:08:59.021Z,100966.72
2022-10-11T05:12:00.901Z,100963.41
2022-10-11T05:15:02.859Z,100971.81
2022-10-11T05:18:04.778Z,100977.03
2022-10-11T05:21:07.835Z,100975.91
2022-10-11T05:24:09.695Z,100972.94
2022-10-11T05:27:11.568Z,100982.13
2022-10-11T05:30:13.492Z,100987.59
2022-10-11T05:33:15.306Z,100977.56
2022-10-11T05:36:17.596Z,100978.66
2022-10-11T05:39:19.426Z,100981.44
2022-10-11T05:42:21.280Z,100984.16
2022-10-11T05:45:23.129Z,100994.84
2022-10-11T05:48:37.479Z,101002.87
2022-10-11T05:52:11.425Z,100997.41
2022-10-11T05:55:16.663Z,101014.56
2022-10-11T06:02:03.667Z,101002.31
2022-10-11T06:05:05.824Z,101010.37
2022-10-11T06:08:08.722Z,101011.34
2022-10-11T06:11:14.675Z,101013.63
2022-10-11T06:14:16.553Z,101012.94
2022-10-11T06:17:18.445Z,101006.84
2022-10-11T06:20:20.468Z,101017.97
2022-10-11T06:23:22.600Z,101030.50
2022-10-11T06:26:24.502Z,101026.94
2022-10-11T06:29:26.454Z,101022.06
2022-10-11T06:32:28.418Z,101024.16
2022-10-11T06:35:30.368Z,101020.53
2022-10-11T06:38:32.241Z,101014.66
2022-10-11T06:41:34.188Z,101013.53
2022-10-11T06:44:36.175Z,101015.88
2022-10-11T06:47:38.008Z,101023.66
2022-10-11T06:50:58.546Z,101021.09
2022-10-11T06:54:02.162Z,101016.56
2022-10-11T06:57:04.000Z,101013.41
2022-10-11T07:00:12.480Z,101015.88
2022-10-11T07:03:14.708Z,101026.53
2022-10-11T07:06:17.791Z,101028.50
2022-10-11T07:09:19.635Z,101028.25
2022-10-11T07:12:21.727Z,101036.53
2022-10-11T07:15:26.882Z,101043.81
2022-10-11T07:18:29.135Z,101034.44
2022-10-11T07:21:31.964Z,101037.53
2022-10-11T07:24:33.794Z,101030.72
2022-10-11T07:27:35.627Z,101029.59
2022-10-11T07:30:41.230Z,101035.12
2022-10-11T07:33:43.363Z,101039.88
2022-10-11T07:36:45.270Z,101037.69
2022-10-11T07:39:48.848Z,101026.19
2022-10-11T07:42:51.527Z,101034.59
2022-10-11T07:45:57.000Z,101036.78
2022-10-11T07:48:59.121Z,101047.09
2022-10-11T07:52:00.969Z,101051.34
2022-10-11T07:55:02.886Z,101045.25
2022-10-11T07:58:07.314Z,101052.31
2022-10-11T08:01:10.231Z,101047.16
2022-10-11T08:04:12.176Z,101052.78
2022-10-11T08:07:14.078Z,101055.50
2022-10-11T08:10:16.118Z,101061.69
2022-10-11T08:13:18.195Z,101046.47
2022-10-11T08:16:20.719Z,101049.03
2022-10-11T08:19:23.879Z,101053.84
2022-10-11T08:22:27.820Z,101060.59
2022-10-11T08:25:29.911Z,101065.00
2022-10-11T08:28:31.967Z,101050.78
2022-10-11T08:31:34.263Z,101052.84
2022-10-11T08:34:36.236Z,101055.25
2022-10-11T08:37:38.223Z,101063.66
2022-10-11T08:40:52.522Z,101052.06
2022-10-11T08:44:21.016Z,101059.03
2022-10-11T08:47:43.308Z,101062.25
2022-10-11T08:50:46.968Z,101056.47
2022-10-11T08:53:54.282Z,101053.09
2022-10-11T08:56:56.308Z,101048.00
2022-10-11T09:00:05.139Z,101048.66
2022-10-11T09:03:24.990Z,101050.97
2022-10-11T09:06:36.001Z,101048.28
2022-10-11T09:09:48.221Z,101044.84
2022-10-11T09:13:00.171Z,101040.72
2022-10-11T09:16:09.494Z,101041.56
2022-10-11T09:19:20.579Z,101035.06
2022-10-11T09:22:24.745Z,101049.03
2022-10-11T09:26:04.541Z,101048.13
2022-10-11T09:29:11.843Z,101054.28
2022-10-11T09:32:21.116Z,101053.22
2022-10-11T09:35:26.685Z,101057.94
2022-10-11T09:38:31.887Z,101057.84
2022-10-11T09:41:38.922Z,101057.69
2022-10-11T09:44:41.828Z,101053.87
2022-10-11T09:47:43.865Z,101058.91
2022-10-11T09:50:45.882Z,101044.63
2022-10-11T09:53:52.010Z,101041.91
2022-10-11T09:56:54.441Z,101036.28
2022-10-11T10:00:00.118Z,101038.91
2022-10-11T10:03:02.961Z,101050.34
2022-10-11T10:06:10.028Z,101046.06
2022-10-11T10:09:28.683Z,101045.56
2022-10-11T10:12:30.583Z,101041.91
2022-10-11T10:15:36.238Z,101044.25
2022-10-11T10:18:48.531Z,101023.31
2022-10-11T10:21:51.900Z,101029.84
2022-10-11T10:24:54.140Z,101017.47
2022-10-11T10:28:00.562Z,101019.09
2022-10-11T10:31:02.378Z,101025.25
2022-10-11T10:34:15.290Z,101020.84
2022-10-11T10:37:17.138Z,101016.22
2022-10-11T10:40:21.100Z,101032.16
2022-10-11T10:43:24.308Z,101029.56
2022-10-11T10:46:35.673Z,101016.91
2022-10-11T10:49:59.834Z,101022.53
2022-10-11T10:53:20.554Z,101008.53
2022-10-11T10:56:31.851Z,101016.13
2022-10-11T10:59:43.214Z,101008.41
2022-10-11T11:03:05.293Z,101016.41
2022-10-11T11:06:12.568Z,101004.09
2022-10-11T11:09:17.359Z,101021.16
2022-10-11T11:12:34.822Z,101009.00
2022-10-11T11:15:41.202Z,101015.12
2022-10-11T11:18:46.354Z,101002.97
2022-10-11T11:21:50.207Z,100995.25
2022-10-11T11:24:57.045Z,101008.62
2022-10-11T11:28:11.753Z,101008.88
2022-10-11T11:31:13.740Z,101003.75
2022-10-11T11:34:15.554Z,101001.84
2022-10-11T11:37:36.819Z,100992.03
2022-10-11T11:40:43.097Z,100995.16
2022-10-11T11:43:52.045Z,100988.94
2022-10-11T11:46:54.848Z,101004.38
2022-10-11T11:49:59.660Z,100994.53
2022-10-11T11:53:05.184Z,100993.22
2022-10-11T11:56:10.258Z,100989.63
2022-10-11T11:59:21.452Z,100980.44
2022-10-11T12:02:39.744Z,100974.69
2022-10-11T12:05:43.748Z,100979.59
2022-10-11T12:08:57.055Z,100972.87
2022-10-11T12:12:00.318Z,100982.87
2022-10-11T12:15:05.046Z,100980.06
2022-10-11T12:18:13.446Z,100982.47
2022-10-11T12:21:17.713Z,100983.81
2022-10-11T12:24:19.508Z,100974.44
2022-10-11T12:28:00.069Z,100979.75
2022-10-11T12:31:05.985Z,100971.88
2022-10-11T12:34:08.229Z,100966.19
2022-10-11T12:37:19.824Z,100968.47
2022-10-11T12:40:36.401Z,100973.41
2022-10-11T12:43:50.552Z,100963.81
2022-10-11T12:46:55.634Z,100983.44
2022-10-11T12:50:02.973Z,100973.13
2022-10-11T12:53:25.242Z,100978.63
2022-10-11T12:56:45.625Z,100968.56
2022-10-11T12:59:47.964Z,100968.66
2022-10-11T13:02:50.143Z,100957.41
2022-10-11T13:05:56.159Z,100955.47
2022-10-11T13:09:02.993Z,100961.03
2022-10-11T13:12:08.243Z,100957.69
2022-10-11T13:15:15.909Z,100956.75
2022-10-11T13:18:19.259Z,100953.72
2022-10-11T13:21:24.317Z,100951.22
2022-10-11T13:24:27.794Z,100953.44
2022-10-11T13:27:29.748Z,100940.19
2022-10-11T13:30:32.981Z,100942.47
2022-10-11T13:33:36.286Z,100940.44
2022-10-11T13:36:38.165Z,100934.72
2022-10-11T13:39:41.590Z,100928.25
2022-10-11T13:42:43.865Z,100933.81
2022-10-11T13:45:45.730Z,100936.09
2022-10-11T13:48:56.618Z,100936.94
2022-10-11T13:51:59.611Z,100939.31
2022-10-11T13:55:01.586Z,100945.47
2022-10-11T13:58:09.119Z,100951.38
2022-10-11T14:01:24.900Z,100953.03
2022-10-11T14:04:29.701Z,100959.19
2022-10-11T14:07:33.867Z,100957.44
2022-10-11T14:10:35.782Z,100957.41
2022-10-11T14:13:41.741Z,100959.03
2022-10-11T14:16:48.079Z,100966.16
2022-10-11T14:20:08.730Z,100964.72
2022-10-11T14:23:13.405Z,100972.22
2022-10-11T14:26:18.786Z,100969.28
2022-10-11T14:29:22.990Z,100968.13
2022-10-11T14:32:29.350Z,100963.81
2022-10-11T14:35:31.950Z,100974.59
2022-10-11T14:38:33.833Z,100965.03
2022-10-11T14:41:35.679Z,100965.78
2022-10-11T14:44:37.654Z,100963.38
2022-10-11T14:47:42.968Z,100963.31
2022-10-11T14:50:49.731Z,100964.72
2022-10-11T14:53:52.229Z,100963.13
2022-10-11T14:56:55.290Z,100971.72
2022-10-11T14:59:57.307Z,100974.59
2022-10-11T15:02:59.120Z,100970.22
2022-10-11T15:06:01.713Z,100974.00
2022-10-11T15:09:04.861Z,100954.66
2022-10-11T15:12:06.859Z,100959.31
2022-10-11T15:15:11.453Z,100974.16
2022-10-11T15:18:17.605Z,100981.38
2022-10-11T15:21:23.010Z,100965.06
2022-10-11T15:24:24.899Z,100974.34
2022-10-11T15:27:28.946Z,100979.44
2022-10-11T15:30:31.637Z,100981.56
2022-10-11T15:33:33.490Z,100978.25
2022-10-11T15:36:35.293Z,100988.91
2022-10-11T15:39:37.217Z,100986.37
2022-10-11T15:42:39.428Z,100987.59
2022-10-11T15:45:41.528Z,100989.84
2022-10-11T15:48:43.862Z,100991.19
2022-10-11T15:51:45.963Z,100989.66
2022-10-11T15:54:47.801Z,100998.28
2022-10-11T15:57:49.570Z,100993.34
2022-10-11T16:00:56.232Z,100991.59
2022-10-11T16:03:58.144Z,100998.66
2022-10-11T16:06:59.986Z,100996.47
2022-10-11T16:10:01.934Z,101003.94
2022-10-11T16:13:03.967Z,101003.06
2022-10-11T16:16:06.457Z,101013.03
2022-10-11T16:19:08.582Z,101016.81
2022-10-11T16:22:11.080Z,101010.09
2022-10-11T16:25:12.885Z,101018.75
2022-10-11T16:28:14.835Z,101027.97
2022-10-11T16:31:18.368Z,101029.75
2022-10-11T16:34:20.283Z,101029.81
2022-10-11T16:37:22.125Z,101031.84
2022-10-11T16:40:26.337Z,101036.28
2022-10-11T16:43:28.172Z,101043.53
2022-10-11T16:46:29.992Z,101052.59
2022-10-11T16:49:32.097Z,101043.19
2022-10-11T16:52:34.138Z,101051.09
2022-10-11T16:55:36.022Z,101046.84
2022-10-11T16:58:37.944Z,101056.25
2022-10-11T17:01:40.016Z,101054.91
2022-10-11T17:04:42.039Z,101056.50
2022-10-11T17:07:43.848Z,101048.81
2022-10-11T17:10:47.726Z,101060.87
2022-10-11T17:13:50.465Z,101059.75
2022-10-11T17:16:52.294Z,101066.06
2022-10-11T17:19:54.328Z,101066.41
2022-10-11T17:22:56.174Z,101066.94
2022-10-11T17:25:57.964Z,101071.72
2022-10-11T17:29:00.539Z,101076.03
2022-10-11T17:32:02.595Z,101071.41
2022-10-11T17:35:05.061Z,101070.78
2022-10-11T17:38:06.891Z,101083.25
2022-10-11T17:41:09.165Z,101076.16
2022-10-11T17:44:11.671Z,101082.75
2022-10-11T17:47:14.384Z,101085.88
2022-10-11T17:50:16.233Z,101088.88
2022-10-11T17:53:18.143Z,101088.56
2022-10-11T17:56:26.704Z,101089.38
2022-10-11T17:59:31.984Z,101086.59
2022-10-11T18:02:33.840Z,101093.50
2022-10-11T18:05:41.933Z,101098.37
2022-10-11T18:08:43.795Z,101093.94
2022-10-11T18:11:46.169Z,101097.66
2022-10-11T18:14:48.007Z,101104.13
2022-10-11T18:17:49.803Z,101095.72
2022-10-11T18:20:51.649Z,101093.94
2022-10-11T18:23:53.465Z,101103.56
2022-10-11T18:26:55.277Z,101095.69
2022-10-11T18:29:57.550Z,101100.03
2022-10-11T18:32:59.366Z,101101.25
2022-10-11T18:36:01.397Z,101101.16
2022-10-11T18:39:04.390Z,101098.53
2022-10-11T18:42:06.320Z,101101.94
2022-10-11T18:45:08.545Z,101105.81
2022-10-11T18:48:10.597Z,101106.56
2022-10-11T18:51:14.884Z,101102.44
2022-10-11T18:54:20.144Z,101110.34
2022-10-11T18:57:24.298Z,101096.28
2022-10-11T19:00:41.760Z,101100.19
2022-10-11T19:03:44.317Z,101095.66
2022-10-11T19:06:47.837Z,101102.00
2022-10-11T19:09:49.759Z,101101.00
2022-10-11T19:12:51.609Z,101097.94
2022-10-11T19:15:53.445Z,101098.25
2022-10-11T19:18:55.429Z,101102.16
2022-10-11T19:21:57.267Z,101098.31
2022-10-11T19:24:59.198Z,101108.75
2022-10-11T19:28:01.049Z,101095.69
2022-10-11T19:31:06.929Z,101108.41
2022-10-11T19:34:09.118Z,101113.78
2022-10-11T19:37:13.320Z,101107.87
2022-10-11T19:40:15.218Z,101112.41
2022-10-11T19:43:17.078Z,101111.00
2022-10-11T19:46:37.902Z,101122.28
2022-10-11T19:49:42.390Z,101123.47
2022-10-11T19:52:45.088Z,101123.88
2022-10-11T19:55:46.976Z,101117.84
2022-10-11T19:58:48.827Z,101112.78
2022-10-11T20:01:53.087Z,101111.81
2022-10-11T20:04:55.322Z,101104.13
2022-10-11T20:07:57.215Z,101128.97
2022-10-11T20:10:59.598Z,101140.19
2022-10-11T20:14:01.437Z,101131.44
2022-10-11T20:17:03.480Z,101124.44
2022-10-11T20:20:05.506Z,101130.28
2022-10-11T20:23:07.338Z,101129.94
2022-10-11T20:26:13.023Z,101127.94
2022-10-11T20:29:14.849Z,101129.34
2022-10-11T20:32:16.675Z,101124.03
2022-10-11T20:35:18.482Z,101128.47
2022-10-11T20:38:20.282Z,101131.28
2022-10-11T20:41:23.323Z,101127.63
2022-10-11T20:44:25.168Z,101138.03
2022-10-11T20:47:27.126Z,101143.97
2022-10-11T20:50:28.938Z,101133.78
2022-10-11T20:53:30.737Z,101145.03
2022-10-11T20:56:33.686Z,101145.28
2022-10-11T20:59:35.757Z,101146.75
2022-10-11T21:02:38.544Z,101134.25
2022-10-11T21:05:40.398Z,101144.50
2022-10-11T21:08:42.206Z,101138.28
2022-10-11T21:11:44.026Z,101138.03
2022-10-11T21:14:45.833Z,101145.13
2022-10-11T21:17:48.514Z,101144.38
2022-10-11T21:20:50.366Z,101154.47
2022-10-11T21:24:01.580Z,101143.56
2022-10-11T21:27:03.393Z,101149.75
2022-10-11T21:30:05.446Z,101149.13
2022-10-11T21:33:07.252Z,101150.94
2022-10-11T21:36:29.404Z,101147.59
2022-10-11T21:39:31.610Z,101150.69
2022-10-11T21:42:33.426Z,101153.56
2022-10-11T21:45:36.631Z,101151.38
2022-10-11T21:48:38.809Z,101152.97
2022-10-11T21:51:40.619Z,101153.47
2022-10-11T21:54:42.395Z,101146.75
2022-10-11T21:57:44.204Z,101153.06
2022-10-11T22:00:46.798Z,101155.41
2022-10-11T22:03:48.754Z,101152.75
2022-10-11T22:06:50.573Z,101145.53
2022-10-11T22:09:52.354Z,101154.44
2022-10-11T22:12:54.161Z,101149.31
2022-10-11T22:15:58.701Z,101148.44
2022-10-11T22:19:00.520Z,101153.53
2022-10-11T22:22:02.437Z,101149.25
2022-10-11T22:25:04.405Z,101153.91
2022-10-11T22:28:08.390Z,101142.53
2022-10-11T22:31:10.391Z,101144.09
2022-10-11T22:34:12.170Z,101145.19
2022-10-11T22:37:13.969Z,101157.44
2022-10-11T22:40:16.117Z,101157.34
2022-10-11T22:43:17.952Z,101157.12
2022-10-11T22:46:19.763Z,101149.28
2022-10-11T22:49:21.562Z,101151.44
2022-10-11T22:52:23.344Z,101149.00
2022-10-11T22:55:26.207Z,101141.34
2022-10-11T22:58:28.084Z,101151.97
2022-10-11T23:01:30.018Z,101154.44
2022-10-11T23:04:31.793Z,101153.16
2022-10-11T23:07:33.778Z,101156.59
2022-10-11T23:10:39.622Z,101160.00
2022-10-11T23:13:41.445Z,101155.47
2022-10-11T23:16:43.251Z,101160.56
2022-10-11T23:19:45.072Z,101163.38
2022-10-11T23:22:46.907Z,101161.34
2022-10-11T23:25:48.720Z,101169.22
2022-10-11T23:28:53.078Z,101170.00
2022-10-11T23:31:55.052Z,101170.00
2022-10-11T23:34:56.870Z,101157.41
2022-10-11T23:37:58.704Z,101171.63
2022-10-11T23:41:00.530Z,101173.97
2022-10-11T23:44:02.338Z,101171.47
2022-10-11T23:47:04.172Z,101178.12
2022-10-11T23:50:06.218Z,101176.31
2022-10-11T23:53:08.082Z,101186.88
2022-10-11T23:56:10.054Z,101177.06
2022-10-11T23:59:11.856Z,101189.13
